Pagrindinis puslapis
METAR-TAF:

METAR-TAF

Oro uostai :

Area_Regional_Airport

South Haven, Mičiganas, Jungtinės Amerikos Valstijos

platuma: 42-21-03N, ilguma: 086-15-22W, Aukštis: 203 m

Dabartinis oras

Ataskaita buvo paskelbta 23 minutes, ne 15:55 UTC
Vėjas 6 kt iš Pietų
Temperatūra 19°C
Drėgmė 46%
Slėgis 1031 hPa
Matomumas: 16.1 km
Giedras dangus

METAR: KLWA 211555Z AUTO 18006KT 10SM CLR 19/07 A3044 RMK AO2 T01860069

Laikas: 12:18 (16:18 UTC)


TAF: trūkstamas

Orai ataskaitas ir orų prognozės (METAR, TAF).

turimą stotys yra geltonos ir raudonos taškus žemėlapyje.

Perkelti pele per norėdami pamatyti stoties vardą.

Tada spustelėkite, norėdami matyti oro stebėjimo ir prognozės.

Norėdami pakeisti žemėlapį: spustelėkite ant žalios mygtukų su juodo kryžiaus žemyn,; žalią mygtuką su brūkšneliu, jei norite nutolinti; arba žalių rodyklių gretimoms žemėlapius.


METAR-TAF: